Time;durP1;ratioP1;P1;durP2;ratioP2;P2;SDS_P1;SDS_P2;PMS_P1;PMS_P2;Temp;Humidity;BMP_temperature;BMP_pressure;BME280_temperature;BME280_humidity;BME280_pressure;Samples;Min_cycle;Max_cycle;Signal;HPM_P1;HPM_P2
2022/01/30 00:01:41;;;;;;;16.00;4.65;;;7.40;99.90;;;;;;5073933;28;20182;-59
2022/01/30 00:04:07;;;;;;;12.82;4.38;;;7.40;99.90;;;;;;5073943;28;20284;-60
2022/01/30 00:06:33;;;;;;;15.60;3.97;;;7.30;99.90;;;;;;5074256;28;20633;-59
2022/01/30 00:08:58;;;;;;;14.70;4.60;;;7.20;99.90;;;;;;5074071;28;20185;-59
2022/01/30 00:11:29;;;;;;;12.23;4.40;;;7.30;99.90;;;;;;5074051;28;20209;-59
2022/01/30 00:13:55;;;;;;;14.15;4.18;;;7.20;99.90;;;;;;5074222;28;20182;-59
2022/01/30 00:16:24;;;;;;;12.20;3.90;;;7.20;99.90;;;;;;5072699;28;20653;-59
2022/01/30 00:19:01;;;;;;;12.35;4.72;;;7.10;99.90;;;;;;5073676;28;20308;-59
2022/01/30 00:24:04;;;;;;;16.23;4.75;;;6.90;99.90;;;;;;5073808;28;20171;-59
2022/01/30 00:26:33;;;;;;;16.70;4.88;;;6.90;99.90;;;;;;5074212;28;20375;-59
2022/01/30 00:28:59;;;;;;;15.65;4.53;;;6.80;99.90;;;;;;5073801;28;20227;-59
2022/01/30 00:31:26;;;;;;;14.65;4.72;;;6.70;99.90;;;;;;5073772;28;20269;-59
2022/01/30 00:33:52;;;;;;;15.63;5.63;;;6.60;99.90;;;;;;5073755;28;20186;-60
2022/01/30 00:36:18;;;;;;;12.30;4.50;;;6.50;99.90;;;;;;5073560;28;20223;-59
2022/01/30 00:38:44;;;;;;;18.48;5.43;;;6.50;99.90;;;;;;5073729;28;20210;-59
2022/01/30 00:41:09;;;;;;;15.35;4.93;;;6.60;99.90;;;;;;5073412;28;20173;-59
2022/01/30 00:43:36;;;;;;;15.32;4.15;;;6.50;99.90;;;;;;5073955;28;20194;-59
2022/01/30 00:46:02;;;;;;;16.20;5.25;;;6.50;99.90;;;;;;5073616;28;20171;-59
2022/01/30 00:48:28;;;;;;;16.27;4.70;;;6.50;99.90;;;;;;5073290;28;20269;-59
2022/01/30 00:50:54;;;;;;;12.45;4.32;;;6.50;99.90;;;;;;5073345;28;20710;-59
2022/01/30 00:53:20;;;;;;;15.07;4.60;;;6.60;99.90;;;;;;5073555;28;20177;-59
2022/01/30 00:55:46;;;;;;;14.75;4.43;;;6.60;99.90;;;;;;5073460;28;20261;-59
2022/01/30 00:58:12;;;;;;;13.25;4.65;;;6.50;99.90;;;;;;5073244;28;20198;-59
2022/01/30 01:00:39;;;;;;;16.40;4.50;;;6.50;99.90;;;;;;5072095;28;20232;-60
2022/01/30 01:03:05;;;;;;;15.45;4.32;;;6.50;99.90;;;;;;5073339;28;20198;-59
2022/01/30 01:05:33;;;;;;;14.20;4.30;;;6.40;99.90;;;;;;5073136;28;20227;-60
2022/01/30 01:08:07;;;;;;;18.48;5.28;;;6.40;99.90;;;;;;5073153;28;20625;-59
2022/01/30 01:23:43;;;;;;;17.60;4.72;;;6.30;99.90;;;;;;5073369;28;20211;-60
2022/01/30 01:26:09;;;;;;;13.00;4.10;;;6.30;99.90;;;;;;5073119;28;20520;-62
2022/01/30 01:28:34;;;;;;;13.13;4.10;;;6.20;99.90;;;;;;5072931;28;20193;-60
2022/01/30 01:31:00;;;;;;;16.42;4.65;;;6.10;99.90;;;;;;5073257;28;20175;-60
2022/01/30 01:33:35;;;;;;;18.48;4.57;;;6.10;99.90;;;;;;5072904;28;20183;-61
2022/01/30 01:36:00;;;;;;;17.48;4.35;;;6.10;99.90;;;;;;5073099;28;20166;-61
2022/01/30 01:38:26;;;;;;;14.85;4.70;;;6.10;99.90;;;;;;5072901;28;20214;-61
2022/01/30 01:40:54;;;;;;;17.13;4.90;;;5.90;99.90;;;;;;5071649;28;20185;-59
2022/01/30 01:43:21;;;;;;;14.75;4.18;;;6.00;99.90;;;;;;5073178;28;20171;-60
2022/01/30 01:45:49;;;;;;;13.77;4.70;;;6.00;99.90;;;;;;5073216;28;20170;-59
2022/01/30 01:48:15;;;;;;;12.70;4.30;;;6.00;99.90;;;;;;5072721;28;20206;-60
2022/01/30 01:50:45;;;;;;;15.00;3.78;;;5.90;99.90;;;;;;5072860;28;20170;-60
2022/01/30 01:53:13;;;;;;;13.57;4.80;;;5.90;99.90;;;;;;5055206;28;20585;-59
2022/01/30 01:55:41;;;;;;;15.20;4.57;;;5.80;99.90;;;;;;5072707;28;20253;-60
2022/01/30 01:58:07;;;;;;;15.82;4.82;;;5.80;99.90;;;;;;5072765;28;20209;-59
2022/01/30 02:00:34;;;;;;;13.45;4.35;;;5.70;99.90;;;;;;5072865;28;20191;-59
2022/01/30 02:03:00;;;;;;;13.40;4.70;;;5.70;99.90;;;;;;5072667;28;20246;-60
2022/01/30 02:05:28;;;;;;;14.07;4.88;;;5.70;99.90;;;;;;5072551;28;20174;-59
2022/01/30 02:11:13;;;;;;;15.63;4.68;;;5.70;99.90;;;;;;5072842;28;20174;-59
2022/01/30 02:13:55;;;;;;;14.23;4.35;;;5.70;99.90;;;;;;5064983;28;20185;-59
2022/01/30 02:27:21;;;;;;;12.93;4.93;;;5.50;99.90;;;;;;5076073;28;20651;-59
2022/01/30 02:29:48;;;;;;;16.15;5.47;;;5.40;99.90;;;;;;5074950;28;20182;-60
2022/01/30 02:32:14;;;;;;;13.85;4.10;;;5.40;99.90;;;;;;5076123;28;20200;-60
2022/01/30 02:34:40;;;;;;;15.15;4.68;;;5.40;99.90;;;;;;5076007;28;20530;-60
2022/01/30 02:37:06;;;;;;;15.63;4.35;;;5.40;99.90;;;;;;5074656;28;20268;-59
2022/01/30 02:39:32;;;;;;;14.27;4.50;;;5.40;99.90;;;;;;5076020;28;20741;-59
2022/01/30 02:41:58;;;;;;;18.67;4.53;;;5.40;99.90;;;;;;5075918;28;20294;-59
2022/01/30 02:44:40;;;;;;;13.70;4.22;;;5.40;99.90;;;;;;5075940;28;20178;-59
2022/01/30 02:47:10;;;;;;;15.70;4.95;;;5.30;99.90;;;;;;5075662;28;20196;-59
2022/01/30 02:49:46;;;;;;;13.45;4.13;;;5.30;99.90;;;;;;5075606;28;20175;-59
2022/01/30 02:52:14;;;;;;;15.07;4.70;;;5.20;99.90;;;;;;5075994;28;20219;-59
2022/01/30 02:54:40;;;;;;;15.80;4.30;;;5.30;99.90;;;;;;5074552;28;20181;-59
2022/01/30 02:57:06;;;;;;;15.30;4.45;;;5.20;99.90;;;;;;5075667;28;20182;-60
2022/01/30 02:59:32;;;;;;;16.45;4.97;;;5.20;99.90;;;;;;5074366;28;20237;-59
2022/01/30 03:02:00;;;;;;;15.75;4.72;;;5.20;99.90;;;;;;5074199;28;20272;-59
2022/01/30 03:04:26;;;;;;;13.60;4.43;;;5.10;99.90;;;;;;5075628;28;20190;-59
2022/01/30 03:06:52;;;;;;;19.80;5.22;;;5.00;99.90;;;;;;5075358;28;20663;-60
2022/01/30 03:09:17;;;;;;;16.80;4.90;;;5.00;99.90;;;;;;5075468;28;20183;-59
2022/01/30 03:11:43;;;;;;;14.65;4.65;;;5.00;99.90;;;;;;5075281;28;20178;-60
2022/01/30 03:14:09;;;;;;;18.83;4.93;;;5.00;99.90;;;;;;5075276;28;20181;-60
2022/01/30 03:16:35;;;;;;;15.13;4.85;;;5.00;99.90;;;;;;5075282;28;20535;-59
2022/01/30 03:19:01;;;;;;;18.85;4.85;;;5.00;99.90;;;;;;5074990;28;20578;-60
2022/01/30 03:21:27;;;;;;;17.17;4.40;;;4.90;99.90;;;;;;5074140;28;20610;-61
2022/01/30 03:23:52;;;;;;;19.30;4.50;;;5.00;99.90;;;;;;5075232;28;20323;-60
2022/01/30 03:26:18;;;;;;;18.65;5.22;;;5.00;99.90;;;;;;5075023;28;20178;-60
2022/01/30 03:28:46;;;;;;;18.30;4.82;;;5.00;99.90;;;;;;5074987;28;20551;-60
2022/01/30 03:31:13;;;;;;;18.77;4.28;;;5.10;99.90;;;;;;5074890;28;20174;-60
2022/01/30 03:33:39;;;;;;;15.98;4.82;;;5.10;99.90;;;;;;5074791;28;20182;-60
2022/01/30 03:36:06;;;;;;;13.45;4.65;;;5.10;99.90;;;;;;5074783;28;20699;-60
2022/01/30 03:38:32;;;;;;;18.90;5.00;;;5.10;99.90;;;;;;5074694;28;20206;-60
2022/01/30 03:40:58;;;;;;;16.77;4.65;;;5.20;99.90;;;;;;5074818;28;20256;-60
2022/01/30 03:43:23;;;;;;;17.33;4.85;;;5.10;99.90;;;;;;5074693;28;20618;-60
2022/01/30 03:45:49;;;;;;;18.17;5.28;;;5.00;99.90;;;;;;5074545;28;20650;-60
2022/01/30 03:48:15;;;;;;;18.45;4.80;;;5.00;99.90;;;;;;5074752;28;20589;-60
2022/01/30 03:50:42;;;;;;;14.73;4.25;;;5.10;99.90;;;;;;5074699;28;20554;-60
2022/01/30 03:53:09;;;;;;;14.82;4.22;;;5.00;99.90;;;;;;5073292;28;20191;-60
2022/01/30 03:55:34;;;;;;;15.32;4.43;;;5.00;99.90;;;;;;5073331;28;20216;-60
2022/01/30 03:58:01;;;;;;;17.70;4.40;;;5.10;99.90;;;;;;5074278;28;20229;-60
2022/01/30 04:00:27;;;;;;;13.77;4.40;;;5.10;99.90;;;;;;5074314;28;20224;-60
2022/01/30 04:02:53;;;;;;;14.93;5.63;;;5.00;99.90;;;;;;5074416;28;20202;-60
2022/01/30 04:05:19;;;;;;;17.27;5.43;;;5.00;99.90;;;;;;5073247;28;20215;-60
2022/01/30 04:07:46;;;;;;;17.40;4.70;;;5.00;99.90;;;;;;5074262;28;20623;-60
2022/01/30 04:10:13;;;;;;;17.35;4.38;;;5.10;99.90;;;;;;5074215;28;20177;-60
2022/01/30 04:12:39;;;;;;;15.63;4.13;;;5.10;99.90;;;;;;5074346;28;20178;-60
2022/01/30 04:15:05;;;;;;;17.42;5.13;;;5.10;99.90;;;;;;5073929;28;20569;-60
2022/01/30 04:17:31;;;;;;;18.75;5.03;;;5.00;99.90;;;;;;5074219;28;20202;-60
2022/01/30 04:19:57;;;;;;;15.05;4.88;;;4.90;99.90;;;;;;5074055;28;20745;-60
2022/01/30 04:22:22;;;;;;;20.63;4.90;;;4.90;99.90;;;;;;5073930;28;20190;-60
2022/01/30 04:24:48;;;;;;;19.63;4.95;;;4.90;99.90;;;;;;5073954;28;20210;-60
2022/01/30 04:27:14;;;;;;;18.23;4.85;;;4.90;99.90;;;;;;5072625;28;20179;-60
2022/01/30 04:29:40;;;;;;;14.73;4.53;;;4.90;99.90;;;;;;5073785;28;20637;-60
2022/01/30 04:32:07;;;;;;;16.45;4.07;;;4.90;99.90;;;;;;5073937;28;20182;-60
2022/01/30 04:34:33;;;;;;;14.77;4.43;;;4.80;99.90;;;;;;5073850;28;20170;-60
2022/01/30 04:37:04;;;;;;;16.73;5.00;;;4.80;99.90;;;;;;5073715;28;20719;-60
2022/01/30 04:53:36;;;;;;;14.43;4.00;;;4.60;99.90;;;;;;5053708;28;20217;-59
2022/01/30 04:59:13;;;;;;;22.98;4.72;;;4.60;99.90;;;;;;5050978;28;20241;-60
2022/01/30 05:04:43;;;;;;;14.38;4.45;;;4.70;99.90;;;;;;5073389;28;20189;-60
2022/01/30 05:09:35;;;;;;;20.95;5.07;;;4.80;99.90;;;;;;5073229;28;20276;-60
2022/01/30 05:12:01;;;;;;;18.80;4.78;;;4.70;99.90;;;;;;5073338;28;20600;-60
2022/01/30 05:14:33;;;;;;;14.80;4.03;;;4.80;99.90;;;;;;5073345;28;20194;-60
2022/01/30 05:16:59;;;;;;;13.60;4.20;;;4.70;99.90;;;;;;5073319;28;20193;-59
2022/01/30 05:19:26;;;;;;;16.73;4.18;;;4.60;99.90;;;;;;5072953;28;20312;-59
2022/01/30 05:21:53;;;;;;;13.80;4.18;;;4.60;99.90;;;;;;5073145;28;20182;-60
2022/01/30 05:24:18;;;;;;;18.48;5.00;;;4.60;99.90;;;;;;5073212;28;20234;-60
2022/01/30 05:26:45;;;;;;;19.48;4.70;;;4.60;99.90;;;;;;5072067;28;20174;-60
2022/01/30 05:29:12;;;;;;;15.85;4.63;;;4.50;99.90;;;;;;5073124;28;20189;-60
2022/01/30 05:31:39;;;;;;;12.95;4.35;;;4.50;99.90;;;;;;5073029;28;20173;-62
2022/01/30 05:34:05;;;;;;;10.23;3.95;;;4.50;99.90;;;;;;5073034;28;20181;-60
2022/01/30 05:36:31;;;;;;;18.50;4.85;;;4.50;99.90;;;;;;5071661;28;20590;-60
2022/01/30 05:38:58;;;;;;;18.13;4.65;;;4.50;99.90;;;;;;5073008;28;20299;-59
2022/01/30 05:41:27;;;;;;;17.97;4.60;;;4.60;99.90;;;;;;5073014;28;20182;-60
2022/01/30 05:43:57;;;;;;;18.45;4.97;;;4.60;99.90;;;;;;5071723;28;20182;-60
2022/01/30 05:46:34;;;;;;;21.52;5.30;;;4.60;99.90;;;;;;5072963;28;20193;-60
2022/01/30 05:49:03;;;;;;;17.95;5.05;;;4.60;99.90;;;;;;5071801;28;20192;-60
2022/01/30 05:51:28;;;;;;;16.88;5.22;;;4.60;99.90;;;;;;5073162;28;20214;-61
2022/01/30 05:53:54;;;;;;;14.32;4.70;;;4.60;99.90;;;;;;5073020;28;20658;-60
2022/01/30 05:56:20;;;;;;;20.35;5.15;;;4.60;99.90;;;;;;5072855;28;20170;-60
2022/01/30 05:58:45;;;;;;;20.13;5.00;;;4.60;99.90;;;;;;5072736;28;20255;-60
2022/01/30 06:01:11;;;;;;;17.33;5.22;;;4.60;99.90;;;;;;5074471;28;20175;-60
2022/01/30 06:03:36;;;;;;;16.17;4.80;;;4.60;99.90;;;;;;5076463;28;20643;-61
2022/01/30 06:06:02;;;;;;;19.58;5.30;;;4.60;99.90;;;;;;5076764;28;20178;-60
2022/01/30 06:08:58;;;;;;;19.52;5.00;;;4.70;99.90;;;;;;5076500;28;20190;-59
2022/01/30 06:11:24;;;;;;;16.95;4.68;;;4.70;99.90;;;;;;5076482;28;20181;-60
2022/01/30 06:13:50;;;;;;;16.75;4.18;;;4.80;99.90;;;;;;5076254;28;20193;-59
2022/01/30 06:16:16;;;;;;;17.20;4.82;;;4.80;99.90;;;;;;5075263;28;20534;-59
2022/01/30 06:18:43;;;;;;;17.98;4.88;;;4.80;99.90;;;;;;5076064;28;20276;-59
2022/01/30 06:21:09;;;;;;;17.95;4.95;;;4.80;99.90;;;;;;5076272;28;20188;-60
2022/01/30 06:23:36;;;;;;;16.50;4.53;;;4.90;99.90;;;;;;5076304;28;20174;-60
2022/01/30 06:26:02;;;;;;;18.23;4.55;;;4.90;99.90;;;;;;5076118;28;20190;-59
2022/01/30 06:28:28;;;;;;;19.65;5.30;;;4.80;99.90;;;;;;5076046;28;20183;-60
2022/01/30 06:30:54;;;;;;;17.33;4.88;;;4.90;99.90;;;;;;5076303;28;20181;-59
2022/01/30 06:33:20;;;;;;;16.02;4.93;;;4.90;99.90;;;;;;5075899;28;20182;-60
2022/01/30 06:35:46;;;;;;;17.27;4.80;;;4.90;99.90;;;;;;5076108;28;20816;-59
2022/01/30 06:38:12;;;;;;;14.65;4.03;;;4.90;99.90;;;;;;5075926;28;20282;-60
2022/01/30 06:40:38;;;;;;;17.40;4.72;;;5.00;99.90;;;;;;5075886;28;20224;-59
2022/01/30 06:43:03;;;;;;;15.05;4.75;;;5.00;99.90;;;;;;5075779;28;20198;-60
2022/01/30 06:45:29;;;;;;;20.65;5.28;;;5.10;99.90;;;;;;5075940;28;20188;-59
2022/01/30 06:47:55;;;;;;;15.63;5.25;;;5.00;99.90;;;;;;5075507;28;20192;-60
2022/01/30 06:50:21;;;;;;;13.60;5.03;;;5.00;99.90;;;;;;5074440;28;20173;-59
2022/01/30 06:52:47;;;;;;;14.15;4.38;;;4.90;99.90;;;;;;5075671;28;20635;-59
2022/01/30 06:55:13;;;;;;;15.73;4.93;;;4.90;99.90;;;;;;5075509;28;20178;-60
2022/01/30 06:57:47;;;;;;;12.68;4.40;;;4.80;99.90;;;;;;5075903;28;20178;-60
2022/01/30 07:00:13;;;;;;;18.45;5.63;;;4.70;99.90;;;;;;5075635;28;20178;-59
2022/01/30 07:02:39;;;;;;;18.60;5.25;;;4.80;99.90;;;;;;5074207;28;20204;-59
2022/01/30 07:05:06;;;;;;;16.77;5.88;;;4.70;99.90;;;;;;5074935;28;20633;-59
2022/01/30 07:07:31;;;;;;;17.77;6.13;;;4.70;99.90;;;;;;5056479;28;20186;-60
2022/01/30 07:09:57;;;;;;;17.70;5.35;;;4.60;99.90;;;;;;5075341;28;20664;-59
2022/01/30 07:12:23;;;;;;;15.88;5.47;;;4.60;99.90;;;;;;5074839;28;20182;-59
2022/01/30 07:14:48;;;;;;;16.17;5.68;;;4.50;99.90;;;;;;5075196;28;20311;-59
2022/01/30 07:17:14;;;;;;;16.85;5.20;;;4.50;99.90;;;;;;5074920;28;20177;-59
2022/01/30 07:19:41;;;;;;;15.57;5.35;;;4.50;99.90;;;;;;5074823;28;20582;-59
2022/01/30 07:22:07;;;;;;;15.57;4.80;;;4.60;99.90;;;;;;5057098;28;20190;-59
2022/01/30 07:24:33;;;;;;;16.17;4.80;;;4.60;99.90;;;;;;5074516;28;20186;-60
2022/01/30 07:26:59;;;;;;;13.52;4.43;;;4.70;99.90;;;;;;5055730;28;20184;-59
2022/01/30 07:29:25;;;;;;;15.82;4.47;;;4.70;99.90;;;;;;5074447;28;20186;-59
2022/01/30 07:31:50;;;;;;;18.92;4.90;;;4.80;99.90;;;;;;5072087;28;20182;-60
2022/01/30 07:34:16;;;;;;;14.63;4.32;;;5.00;99.90;;;;;;5054153;28;20186;-61
2022/01/30 07:36:43;;;;;;;20.08;4.97;;;5.00;99.90;;;;;;5054922;28;20196;-61
2022/01/30 07:39:17;;;;;;;15.43;4.50;;;5.00;99.90;;;;;;5074084;28;20290;-61
2022/01/30 07:41:43;;;;;;;17.70;5.57;;;5.00;99.90;;;;;;5074623;28;20179;-61
2022/01/30 07:44:09;;;;;;;24.33;4.97;;;5.00;99.90;;;;;;5074800;28;20196;-61
2022/01/30 07:46:35;;;;;;;16.70;4.80;;;5.10;99.90;;;;;;5074334;28;20214;-61
2022/01/30 07:49:01;;;;;;;19.15;5.05;;;5.20;99.90;;;;;;5074379;28;20181;-61
2022/01/30 07:51:27;;;;;;;20.98;5.75;;;5.30;99.90;;;;;;5074427;28;20240;-62
2022/01/30 07:53:54;;;;;;;19.13;4.85;;;5.30;99.90;;;;;;5056424;28;20577;-60
2022/01/30 07:56:19;;;;;;;14.50;4.40;;;5.30;99.90;;;;;;5074441;28;20646;-61
2022/01/30 07:58:45;;;;;;;16.55;5.32;;;5.20;99.90;;;;;;5074349;28;20258;-60
2022/01/30 08:01:11;;;;;;;17.08;5.25;;;5.20;99.90;;;;;;5074185;28;20219;-61
2022/01/30 08:03:36;;;;;;;19.73;6.07;;;5.40;99.90;;;;;;5073011;28;20261;-61
2022/01/30 08:06:02;;;;;;;17.88;4.53;;;5.40;99.90;;;;;;5073489;28;20704;-61
2022/01/30 08:08:28;;;;;;;13.93;4.78;;;5.40;99.90;;;;;;5073552;28;20580;-61
2022/01/30 08:10:54;;;;;;;18.73;5.03;;;5.20;99.90;;;;;;5072850;28;20257;-61
2022/01/30 08:13:19;;;;;;;17.75;4.25;;;5.20;99.90;;;;;;5071894;28;20182;-61
2022/01/30 08:15:46;;;;;;;14.15;4.15;;;5.00;99.90;;;;;;5072062;28;20178;-61
2022/01/30 08:18:12;;;;;;;13.88;4.07;;;5.00;99.90;;;;;;5071916;28;20225;-61
2022/01/30 08:20:38;;;;;;;12.80;4.35;;;5.00;99.90;;;;;;5071903;28;20265;-61
2022/01/30 08:23:12;;;;;;;12.63;4.57;;;5.00;99.90;;;;;;5071069;28;20277;-61
2022/01/30 08:25:38;;;;;;;19.73;5.43;;;5.10;99.90;;;;;;5072465;28;20535;-61
2022/01/30 08:28:04;;;;;;;23.00;5.72;;;5.20;99.90;;;;;;5073899;28;20639;-61
2022/01/30 08:30:30;;;;;;;15.85;4.50;;;5.20;99.90;;;;;;5055863;28;20189;-61
2022/01/30 08:32:58;;;;;;;18.20;5.78;;;5.20;99.90;;;;;;5073669;28;20212;-62
2022/01/30 08:35:25;;;;;;;18.25;5.97;;;5.30;99.90;;;;;;5073455;28;20245;-61
2022/01/30 08:37:50;;;;;;;13.98;4.72;;;5.40;99.90;;;;;;5073717;28;20178;-61
2022/01/30 08:40:18;;;;;;;16.73;5.55;;;5.40;99.90;;;;;;5073789;28;20664;-61
2022/01/30 08:42:46;;;;;;;21.20;6.20;;;5.40;99.90;;;;;;5073510;28;20166;-61
2022/01/30 08:45:13;;;;;;;21.25;5.93;;;5.40;99.90;;;;;;5073602;28;20265;-61
2022/01/30 08:47:41;;;;;;;15.63;4.80;;;5.50;99.90;;;;;;5055517;28;20239;-61
2022/01/30 08:50:08;;;;;;;16.40;5.47;;;5.70;99.90;;;;;;5073354;28;20664;-61
2022/01/30 08:52:34;;;;;;;17.35;5.35;;;5.70;99.90;;;;;;5055497;28;20172;-61
2022/01/30 08:55:00;;;;;;;15.95;5.25;;;5.70;99.90;;;;;;5073354;28;20177;-61
2022/01/30 08:57:26;;;;;;;17.67;6.25;;;5.70;99.90;;;;;;5055578;28;20177;-61
2022/01/30 08:59:51;;;;;;;19.83;6.20;;;5.80;99.90;;;;;;5072981;28;20205;-61
2022/01/30 09:02:19;;;;;;;19.83;6.15;;;5.80;99.90;;;;;;5073123;28;20184;-61
2022/01/30 09:04:44;;;;;;;14.75;5.68;;;5.80;99.90;;;;;;5055327;28;20227;-61
2022/01/30 09:07:10;;;;;;;20.33;6.03;;;5.80;99.90;;;;;;5072963;28;20635;-61
2022/01/30 09:09:35;;;;;;;18.85;5.88;;;5.80;99.90;;;;;;5073278;28;20192;-61
2022/01/30 09:12:03;;;;;;;17.85;6.20;;;5.80;99.90;;;;;;5073237;28;20186;-61
2022/01/30 09:14:29;;;;;;;18.52;5.72;;;5.90;99.90;;;;;;5055580;28;20202;-62
2022/01/30 09:16:55;;;;;;;15.85;6.05;;;6.00;99.90;;;;;;5055181;28;20646;-61
2022/01/30 09:19:21;;;;;;;17.83;5.40;;;6.10;99.90;;;;;;5073171;28;20329;-63
2022/01/30 09:21:47;;;;;;;17.52;5.85;;;6.10;99.90;;;;;;5073214;28;20222;-61
2022/01/30 09:24:14;;;;;;;21.48;6.15;;;6.20;99.90;;;;;;5073124;28;20178;-61
2022/01/30 09:26:40;;;;;;;15.38;5.40;;;6.30;99.90;;;;;;5072161;28;20655;-61
2022/01/30 09:29:06;;;;;;;17.05;5.30;;;6.40;99.90;;;;;;5072775;28;20314;-61
2022/01/30 09:31:32;;;;;;;14.13;6.10;;;6.50;99.90;;;;;;5072845;28;20188;-61
2022/01/30 09:33:57;;;;;;;19.77;5.25;;;6.60;99.90;;;;;;5072682;28;20178;-61
2022/01/30 09:36:23;;;;;;;18.85;5.85;;;6.60;99.90;;;;;;5076969;28;20177;-61
2022/01/30 09:38:50;;;;;;;15.38;5.82;;;6.70;99.90;;;;;;5076982;28;20214;-61
2022/01/30 09:41:16;;;;;;;21.33;6.60;;;6.70;99.90;;;;;;5076875;28;20645;-61
2022/01/30 09:43:43;;;;;;;15.43;5.22;;;6.80;99.90;;;;;;5076866;28;20174;-61
2022/01/30 09:46:10;;;;;;;19.05;6.47;;;6.90;99.90;;;;;;5076951;28;20182;-61
2022/01/30 09:48:37;;;;;;;21.02;6.10;;;7.00;99.90;;;;;;5076428;28;20182;-61
2022/01/30 09:51:08;;;;;;;17.88;6.18;;;7.00;99.90;;;;;;5076758;28;20185;-61
2022/01/30 09:53:34;;;;;;;18.48;6.15;;;7.10;99.90;;;;;;5076838;28;20186;-60
2022/01/30 09:56:03;;;;;;;22.95;6.60;;;7.10;99.90;;;;;;5076399;28;20185;-61
2022/01/30 09:58:30;;;;;;;17.65;5.32;;;7.10;99.90;;;;;;5076228;28;20697;-61
2022/01/30 10:00:56;;;;;;;17.65;5.68;;;7.20;99.90;;;;;;5076368;28;20170;-62
2022/01/30 10:03:23;;;;;;;20.88;6.78;;;7.20;99.90;;;;;;5058976;28;20261;-61
2022/01/30 10:06:09;;;;;;;17.77;5.78;;;7.30;99.90;;;;;;5076549;28;20170;-61
2022/01/30 10:08:42;;;;;;;19.67;6.65;;;7.40;99.90;;;;;;5076464;28;20170;-60
2022/01/30 10:11:27;;;;;;;17.13;5.47;;;7.50;99.90;;;;;;5059524;28;20186;-60
2022/01/30 10:14:22;;;;;;;18.33;6.03;;;7.50;99.90;;;;;;5076419;28;20236;-61
2022/01/30 10:16:49;;;;;;;16.88;5.65;;;7.70;99.90;;;;;;5058960;28;20224;-60
2022/01/30 10:19:19;;;;;;;18.60;6.07;;;7.80;99.90;;;;;;5076027;28;20690;-61
2022/01/30 10:22:06;;;;;;;17.95;6.25;;;8.00;99.90;;;;;;5058021;28;20181;-60
2022/01/30 10:24:37;;;;;;;19.10;5.80;;;8.00;99.90;;;;;;5076230;28;20178;-61
2022/01/30 10:27:21;;;;;;;15.25;5.15;;;8.00;99.90;;;;;;5075877;28;20231;-61
2022/01/30 10:30:00;;;;;;;17.23;5.80;;;8.10;99.90;;;;;;5076099;28;20228;-61
2022/01/30 10:32:27;;;;;;;15.13;5.43;;;8.10;99.90;;;;;;5075676;28;20175;-61
2022/01/30 10:34:58;;;;;;;14.88;6.03;;;8.10;99.90;;;;;;5075997;28;20224;-61
2022/01/30 10:37:24;;;;;;;13.95;4.93;;;8.20;99.90;;;;;;5075929;28;20200;-61
2022/01/30 10:40:09;;;;;;;17.02;5.28;;;8.30;99.90;;;;;;5075739;28;20214;-61
2022/01/30 10:42:52;;;;;;;19.02;5.78;;;8.40;99.90;;;;;;5075486;28;20185;-61
2022/01/30 10:45:33;;;;;;;14.20;4.95;;;8.60;99.90;;;;;;5075892;28;20220;-61
2022/01/30 10:48:23;;;;;;;17.83;4.95;;;8.70;99.90;;;;;;5075043;28;20178;-61
2022/01/30 10:50:49;;;;;;;12.45;5.07;;;8.70;99.90;;;;;;5075457;28;20170;-61
2022/01/30 10:53:23;;;;;;;15.25;4.22;;;8.70;99.90;;;;;;5075364;28;20613;-62
2022/01/30 10:55:50;;;;;;;16.45;5.13;;;8.80;99.90;;;;;;5075654;28;20166;-62
2022/01/30 10:58:19;;;;;;;13.82;4.60;;;8.60;99.90;;;;;;5075154;28;20199;-62
2022/01/30 11:00:54;;;;;;;13.75;5.15;;;8.70;99.90;;;;;;5075426;28;20210;-61
2022/01/30 11:03:44;;;;;;;17.80;4.93;;;8.80;99.90;;;;;;5075304;28;20181;-61
2022/01/30 11:06:13;;;;;;;12.20;4.38;;;8.90;99.90;;;;;;5057798;28;20216;-61
2022/01/30 11:08:41;;;;;;;17.67;5.03;;;8.80;99.90;;;;;;5075154;28;20215;-61
2022/01/30 11:11:31;;;;;;;14.60;4.80;;;8.80;99.90;;;;;;5075153;28;20181;-62
2022/01/30 11:19:15;;;;;;;16.10;4.97;;;8.90;99.90;;;;;;5075142;28;20705;-61
2022/01/30 11:21:41;;;;;;;17.48;4.93;;;8.80;99.90;;;;;;5074895;28;20175;-61
2022/01/30 11:24:12;;;;;;;15.13;4.88;;;8.90;99.90;;;;;;5056932;28;20550;-61
2022/01/30 11:26:39;;;;;;;15.32;4.88;;;8.90;99.90;;;;;;5074976;28;20181;-61
2022/01/30 11:29:13;;;;;;;17.77;4.82;;;9.00;99.90;;;;;;5074942;28;20196;-61
2022/01/30 11:31:39;;;;;;;15.38;5.05;;;8.70;99.90;;;;;;5074821;28;20213;-60
2022/01/30 11:34:05;;;;;;;14.27;4.75;;;8.80;99.90;;;;;;5074856;28;20182;-61
2022/01/30 11:36:32;;;;;;;15.52;5.30;;;8.90;99.90;;;;;;5074683;28;20178;-61
2022/01/30 11:39:00;;;;;;;15.63;5.45;;;8.70;99.90;;;;;;5074369;28;20297;-60
2022/01/30 11:41:26;;;;;;;15.15;4.20;;;8.40;99.90;;;;;;5074724;28;20177;-61
2022/01/30 11:44:26;;;;;;;14.23;4.63;;;8.30;99.90;;;;;;5057022;28;20636;-61
2022/01/30 11:46:58;;;;;;;14.95;5.60;;;8.30;99.90;;;;;;5030622;28;20183;-61
2022/01/30 11:49:47;;;;;;;14.10;5.45;;;8.40;99.90;;;;;;5074285;28;20223;-61
2022/01/30 11:52:15;;;;;;;14.32;4.78;;;8.30;99.90;;;;;;5074592;28;20163;-61
2022/01/30 11:54:42;;;;;;;14.75;4.90;;;8.30;99.90;;;;;;5074475;28;20178;-61
2022/01/30 11:57:20;;;;;;;11.52;4.53;;;8.30;99.90;;;;;;5056489;28;20541;-61
2022/01/30 11:59:50;;;;;;;16.60;4.78;;;8.30;99.90;;;;;;5073333;28;20221;-60
2022/01/30 12:02:28;;;;;;;16.73;5.13;;;8.30;99.90;;;;;;5074462;28;20171;-54
2022/01/30 12:05:03;;;;;;;16.17;5.00;;;8.20;99.90;;;;;;5074128;28;20174;-59
2022/01/30 12:07:48;;;;;;;16.35;4.88;;;8.50;99.90;;;;;;5074314;28;20620;-59
2022/01/30 12:10:24;;;;;;;17.73;4.68;;;8.70;99.90;;;;;;5072942;28;20185;-59
2022/01/30 12:12:59;;;;;;;13.68;4.43;;;9.00;99.90;;;;;;5074187;28;20181;-59
2022/01/30 12:15:38;;;;;;;13.30;4.38;;;9.10;99.90;;;;;;5074279;28;20174;-59
2022/01/30 12:18:05;;;;;;;16.38;4.95;;;9.30;99.90;;;;;;5073936;28;20197;-58
2022/01/30 12:20:52;;;;;;;15.80;4.80;;;9.40;99.90;;;;;;5073889;28;20170;-59
2022/01/30 12:23:26;;;;;;;15.75;4.28;;;9.40;99.90;;;;;;5073970;28;20174;-59
2022/01/30 12:25:54;;;;;;;16.05;4.22;;;9.40;99.90;;;;;;5073815;28;20551;-59
2022/01/30 12:28:51;;;;;;;14.70;4.47;;;9.40;99.90;;;;;;5073815;28;20204;-59
2022/01/30 12:31:38;;;;;;;13.38;4.18;;;9.20;99.90;;;;;;5073984;28;20173;-59
2022/01/30 12:34:19;;;;;;;12.52;4.18;;;8.80;99.90;;;;;;5073841;28;20227;-59
2022/01/30 12:36:55;;;;;;;18.00;4.70;;;8.80;99.90;;;;;;5073763;28;20169;-60
2022/01/30 12:39:22;;;;;;;16.10;4.72;;;8.80;99.90;;;;;;5073465;28;20736;-59
2022/01/30 12:41:50;;;;;;;16.58;4.05;;;9.00;99.90;;;;;;5073742;28;20167;-59
2022/01/30 12:44:19;;;;;;;11.30;3.95;;;9.10;99.90;;;;;;5073822;28;20299;-59
2022/01/30 12:46:53;;;;;;;14.30;4.80;;;9.20;99.90;;;;;;5073489;28;20175;-58
2022/01/30 12:49:20;;;;;;;14.95;4.18;;;9.30;99.90;;;;;;5073389;28;20190;-59
2022/01/30 12:51:51;;;;;;;13.10;3.92;;;9.20;99.90;;;;;;5073436;28;20290;-59
2022/01/30 12:54:20;;;;;;;15.75;4.10;;;9.20;99.90;;;;;;5073526;28;20250;-60
2022/01/30 12:56:47;;;;;;;11.23;3.88;;;9.20;99.90;;;;;;5073465;28;20179;-59
2022/01/30 12:59:14;;;;;;;12.93;3.70;;;9.20;99.90;;;;;;5073303;28;20209;-59
2022/01/30 13:01:48;;;;;;;12.65;3.72;;;9.30;99.90;;;;;;5073383;28;20181;-59
2022/01/30 13:04:20;;;;;;;14.13;3.85;;;9.20;99.90;;;;;;5073293;28;20252;-59
2022/01/30 13:06:48;;;;;;;11.80;3.55;;;9.10;99.90;;;;;;5073598;28;20272;-59
2022/01/30 13:09:22;;;;;;;12.07;3.63;;;9.20;99.90;;;;;;5073326;28;20266;-59
2022/01/30 13:11:49;;;;;;;13.45;3.47;;;9.20;99.90;;;;;;5073171;28;20552;-59
2022/01/30 13:14:16;;;;;;;11.02;3.60;;;9.10;99.90;;;;;;5073057;28;20182;-59
2022/01/30 13:16:46;;;;;;;11.95;4.05;;;9.20;99.90;;;;;;5073072;28;20179;-60
2022/01/30 13:19:26;;;;;;;13.45;5.00;;;9.30;99.90;;;;;;5072833;28;20268;-59
2022/01/30 13:21:53;;;;;;;13.65;4.30;;;9.30;99.90;;;;;;5073152;28;20201;-59
2022/01/30 13:24:20;;;;;;;15.43;4.63;;;9.20;99.90;;;;;;5073041;28;20170;-60
2022/01/30 13:26:47;;;;;;;17.67;3.97;;;9.30;99.90;;;;;;5073047;28;20173;-59
2022/01/30 13:29:19;;;;;;;10.98;3.63;;;9.00;99.90;;;;;;5072902;28;20175;-59
2022/01/30 13:31:50;;;;;;;12.63;4.13;;;8.80;99.90;;;;;;5073087;28;20170;-58
2022/01/30 13:34:16;;;;;;;11.07;3.90;;;8.70;99.90;;;;;;5073086;28;20174;-59
2022/01/30 13:36:52;;;;;;;14.35;4.55;;;8.70;99.90;;;;;;5073018;28;20178;-59
2022/01/30 13:39:24;;;;;;;12.98;4.20;;;8.70;99.90;;;;;;5072856;28;20205;-59
2022/01/30 13:42:00;;;;;;;12.30;4.22;;;8.70;99.90;;;;;;5072860;28;20175;-59
2022/01/30 13:44:50;;;;;;;13.13;3.72;;;8.60;99.90;;;;;;5056833;28;20209;-59
2022/01/30 13:47:22;;;;;;;10.30;4.13;;;8.60;99.90;;;;;;5073027;28;20167;-59
2022/01/30 13:49:49;;;;;;;12.13;4.00;;;8.60;99.90;;;;;;5072753;28;20261;-59
2022/01/30 13:52:18;;;;;;;14.23;4.20;;;8.60;99.90;;;;;;5072857;28;20174;-59
2022/01/30 13:54:56;;;;;;;13.55;4.10;;;8.60;99.90;;;;;;5072989;28;20171;-59